Time;durP1;ratioP1;P1;durP2;ratioP2;P2;SDS_P1;SDS_P2;PMS_P1;PMS_P2;Temp;Humidity;BMP_temperature;BMP_pressure;BME280_temperature;BME280_humidity;BME280_pressure;Samples;Min_cycle;Max_cycle;Signal;HPM_P1;HPM_P2
2023/11/16 00:02:23;;;;;;;0.13;0.13;;;;;;;10.18;100.00;97534.53;4993824;28;20045;-75
2023/11/16 00:04:49;;;;;;;0.20;0.20;;;;;;;10.13;100.00;97525.97;5010029;28;20024;-77
2023/11/16 00:07:15;;;;;;;0.25;0.20;;;;;;;10.17;100.00;97553.38;5011306;28;20065;-74
2023/11/16 00:09:41;;;;;;;0.28;0.22;;;;;;;10.13;100.00;97550.00;5009765;28;20022;-76
2023/11/16 00:12:07;;;;;;;0.10;0.10;;;;;;;10.07;100.00;97549.47;5010073;28;20485;-76
2023/11/16 00:14:34;;;;;;;0.43;0.28;;;;;;;10.04;100.00;97545.19;5011217;28;20101;-76
2023/11/16 00:17:00;;;;;;;2.00;0.45;;;;;;;9.97;100.00;97543.81;4993646;28;20034;-76
2023/11/16 00:19:26;;;;;;;0.93;0.63;;;;;;;9.85;100.00;97527.66;4993666;28;20029;-75
2023/11/16 00:21:52;;;;;;;0.32;0.32;;;;;;;9.85;100.00;97544.56;5009758;28;20017;-77
2023/11/16 00:24:25;;;;;;;0.85;0.40;;;;;;;9.82;100.00;97553.63;5009813;28;20072;-75
2023/11/16 00:26:50;;;;;;;;;;;;;;;9.87;100.00;97557.84;4994473;28;20052;-76
2023/11/16 00:29:16;;;;;;;0.28;0.28;;;;;;;9.77;100.00;97546.84;5002724;28;20004;-77
2023/11/16 00:31:42;;;;;;;0.47;0.47;;;;;;;9.73;100.00;97547.94;5009803;28;20037;-75
2023/11/16 00:34:07;;;;;;;0.30;0.30;;;;;;;9.67;100.00;97545.63;5010816;28;20103;-76
2023/11/16 00:36:34;;;;;;;0.82;0.82;;;;;;;9.63;100.00;97544.94;5009670;28;20057;-76
2023/11/16 00:39:00;;;;;;;0.32;0.22;;;;;;;9.64;100.00;97553.81;5009619;28;20405;-76
2023/11/16 00:41:25;;;;;;;2.30;0.40;;;;;;;9.57;100.00;97547.97;5009485;28;20041;-76
2023/11/16 00:43:51;;;;;;;0.00;0.00;;;;;;;9.55;100.00;97557.03;4993080;28;20034;-77
2023/11/16 00:46:16;;;;;;;0.43;0.43;;;;;;;9.51;100.00;97544.81;4993212;28;20122;-78
2023/11/16 00:48:43;;;;;;;0.35;0.35;;;;;;;9.43;100.00;97536.38;4993395;28;20112;-75
2023/11/16 00:51:12;;;;;;;1.35;0.30;;;;;;;9.42;100.00;97530.19;4993102;28;20120;-77
2023/11/16 00:53:42;;;;;;;0.10;0.10;;;;;;;9.38;100.00;97525.13;4993425;28;20057;-75
2023/11/16 00:56:11;;;;;;;0.10;0.10;;;;;;;9.39;100.00;97538.38;5010069;28;20032;-75
2023/11/16 00:58:42;;;;;;;0.25;0.22;;;;;;;9.40;100.00;97531.22;5013840;28;20026;-76
2023/11/16 01:01:09;;;;;;;0.00;0.00;;;;;;;9.36;100.00;97541.22;4997775;28;20111;-76
2023/11/16 01:03:36;;;;;;;2.45;0.45;;;;;;;9.36;100.00;97546.56;5013500;28;20021;-76
2023/11/16 01:06:02;;;;;;;0.08;0.08;;;;;;;9.36;100.00;97553.69;5013131;28;20053;-76
2023/11/16 01:08:33;;;;;;;0.10;0.10;;;;;;;9.34;100.00;97542.25;5013267;28;20064;-76
2023/11/16 01:11:03;;;;;;;0.20;0.20;;;;;;;9.31;100.00;97539.75;5014784;28;20030;-76
2023/11/16 01:13:41;;;;;;;1.38;0.82;;;;;;;9.17;100.00;97525.38;5013037;28;20048;-76
2023/11/16 01:16:12;;;;;;;0.98;0.75;;;;;;;9.16;100.00;97544.16;4997938;28;20088;-74
2023/11/16 01:18:42;;;;;;;2.30;1.10;;;;;;;9.03;100.00;97535.97;5014320;28;20036;-74
2023/11/16 01:21:08;;;;;;;0.17;0.17;;;;;;;9.03;100.00;97546.66;5013040;28;20420;-76
2023/11/16 01:23:36;;;;;;;0.00;0.00;;;;;;;9.03;100.00;97557.31;4996631;28;20025;-75
2023/11/16 01:26:03;;;;;;;0.00;0.00;;;;;;;9.01;100.00;97561.88;4996591;28;20129;-75
2023/11/16 01:28:31;;;;;;;0.10;0.10;;;;;;;8.94;100.00;97559.63;5012836;28;20076;-77
2023/11/16 01:30:56;;;;;;;0.00;0.00;;;;;;;8.94;100.00;97565.84;5013051;28;20037;-75
2023/11/16 01:33:24;;;;;;;0.30;0.30;;;;;;;8.88;100.00;97565.31;4996278;28;20038;-76
2023/11/16 01:35:51;;;;;;;3.20;2.33;;;;;;;8.78;100.00;97550.75;4996108;28;20030;-76
2023/11/16 01:38:16;;;;;;;4.10;2.72;;;;;;;8.71;100.00;97556.41;4996109;28;20046;-76
2023/11/16 01:40:42;;;;;;;4.18;2.42;;;;;;;8.66;100.00;97568.28;5012821;28;20400;-75
2023/11/16 01:43:08;;;;;;;5.43;3.33;;;;;;;8.66;100.00;97582.47;5012777;28;20125;-74
2023/11/16 01:45:34;;;;;;;4.68;3.40;;;;;;;8.71;100.00;97583.09;4996399;28;20040;-75
2023/11/16 01:48:03;;;;;;;5.70;2.55;;;;;;;8.72;100.00;97586.63;4996177;28;20489;-76
2023/11/16 01:50:38;;;;;;;4.97;2.88;;;;;;;8.73;100.00;97580.34;4996333;28;20069;-76
2023/11/16 01:53:10;;;;;;;4.53;1.92;;;;;;;8.68;100.00;97574.38;5012577;28;20026;-76
2023/11/16 01:55:38;;;;;;;3.97;2.17;;;;;;;8.70;100.00;97570.69;4996698;28;20025;-76
2023/11/16 01:58:06;;;;;;;3.28;2.03;;;;;;;8.75;100.00;97569.59;5012570;28;20497;-76
2023/11/16 02:00:33;;;;;;;4.43;2.03;;;;;;;8.71;100.00;97568.88;5012310;28;20479;-75
2023/11/16 02:03:04;;;;;;;6.47;3.20;;;;;;;8.59;100.00;97574.88;4987942;28;20478;-76
2023/11/16 02:05:34;;;;;;;9.10;4.10;;;;;;;8.52;100.00;97569.00;4996021;28;20468;-77
2023/11/16 02:08:01;;;;;;;11.85;4.18;;;;;;;8.46;100.00;97563.19;5011535;28;20371;-74
2023/11/16 02:10:30;;;;;;;9.15;3.63;;;;;;;8.41;100.00;97568.72;5012016;28;20035;-76
2023/11/16 02:12:56;;;;;;;7.25;3.70;;;;;;;8.38;100.00;97565.38;5011969;28;20497;-76
2023/11/16 02:15:22;;;;;;;7.18;3.55;;;;;;;8.27;100.00;97567.72;5012353;28;20373;-75
2023/11/16 02:17:49;;;;;;;10.57;4.32;;;;;;;8.23;100.00;97560.81;5011856;28;20033;-77
2023/11/16 02:20:15;;;;;;;6.13;3.75;;;;;;;8.16;100.00;97561.13;5011910;28;20489;-76
2023/11/16 02:22:42;;;;;;;4.97;3.35;;;;;;;8.23;100.00;97579.47;5011783;28;20057;-76
2023/11/16 02:25:08;;;;;;;6.63;3.30;;;;;;;8.10;100.00;97572.09;4995339;28;20029;-75
2023/11/16 02:27:35;;;;;;;7.97;2.65;;;;;;;8.20;100.00;97593.81;4995220;28;20038;-75
2023/11/16 02:30:00;;;;;;;5.03;2.20;;;;;;;8.19;100.00;97582.28;4978724;28;20497;-75
2023/11/16 02:32:26;;;;;;;6.30;3.40;;;;;;;8.25;100.00;97583.75;4995335;28;20072;-77
2023/11/16 02:34:52;;;;;;;7.07;3.00;;;;;;;8.29;100.00;97580.03;4995500;28;20128;-76
2023/11/16 02:37:18;;;;;;;6.53;2.60;;;;;;;8.39;100.00;97593.75;4995635;28;20096;-75
2023/11/16 02:39:44;;;;;;;3.25;1.55;;;;;;;8.39;100.00;97594.63;4995168;28;20022;-76
2023/11/16 02:42:13;;;;;;;4.35;1.63;;;;;;;8.43;100.00;97595.31;4978982;28;20021;-76
2023/11/16 02:44:42;;;;;;;2.90;1.70;;;;;;;8.46;100.00;97589.81;4995453;28;20041;-75
2023/11/16 02:47:08;;;;;;;3.30;1.90;;;;;;;8.41;100.00;97587.38;4979315;28;20029;-74
2023/11/16 02:49:34;;;;;;;4.05;2.25;;;;;;;8.37;100.00;97595.63;4978681;28;20018;-75
2023/11/16 02:51:59;;;;;;;6.05;3.28;;;;;;;8.37;100.00;97603.59;4994963;28;20045;-76
2023/11/16 02:54:28;;;;;;;7.07;3.53;;;;;;;8.31;100.00;97599.47;4979302;28;20042;-75
2023/11/16 02:56:56;;;;;;;7.65;4.28;;;;;;;8.31;100.00;97603.94;4994920;28;20120;-76
2023/11/16 02:59:22;;;;;;;6.35;3.97;;;;;;;8.31;100.00;97603.94;4978585;28;20485;-75
2023/11/16 03:01:48;;;;;;;5.38;2.90;;;;;;;8.33;100.00;97599.41;4995057;28;20113;-76
2023/11/16 03:04:13;;;;;;;2.83;1.83;;;;;;;8.30;100.00;97605.75;4994992;28;20037;-76
2023/11/16 03:06:39;;;;;;;2.28;1.58;;;;;;;8.36;100.00;97609.91;4994814;28;20486;-76
2023/11/16 03:09:05;;;;;;;3.55;1.90;;;;;;;8.42;100.00;97612.25;4994697;28;20018;-76
2023/11/16 03:11:35;;;;;;;7.20;2.30;;;;;;;8.45;100.00;97607.63;4994634;28;20053;-76
2023/11/16 03:14:00;;;;;;;2.22;1.85;;;;;;;8.52;100.00;97608.16;4994073;28;20172;-75
2023/11/16 03:16:26;;;;;;;2.25;1.58;;;;;;;8.62;100.00;97598.72;4995082;28;20109;-76
2023/11/16 03:18:52;;;;;;;2.13;1.48;;;;;;;8.62;100.00;97588.91;4994327;28;20033;-77
2023/11/16 03:21:18;;;;;;;3.80;1.52;;;;;;;8.63;100.00;97600.44;4978287;28;20025;-76
2023/11/16 03:23:44;;;;;;;4.88;2.80;;;;;;;8.62;100.00;97598.72;4994686;28;20045;-77
2023/11/16 03:26:10;;;;;;;16.17;8.80;;;;;;;8.63;100.00;97603.13;4982898;28;20141;-76
2023/11/16 03:28:36;;;;;;;3.92;1.73;;;;;;;8.68;100.00;97596.59;4994258;28;20548;-77
2023/11/16 03:31:05;;;;;;;3.45;2.75;;;;;;;8.69;100.00;97595.66;4994150;28;20120;-76
2023/11/16 03:33:31;;;;;;;2.15;1.55;;;;;;;8.84;100.00;97609.09;5010699;28;20481;-75
2023/11/16 03:35:57;;;;;;;15.02;8.15;;;;;;;8.89;100.00;97607.06;5010524;28;20021;-76
2023/11/16 03:38:23;;;;;;;22.75;12.60;;;;;;;8.84;100.00;97623.28;5012148;28;20498;-75
2023/11/16 03:40:50;;;;;;;43.55;14.50;;;;;;;8.79;100.00;97624.50;4994533;28;20041;-75
2023/11/16 03:43:16;;;;;;;85.10;29.17;;;;;;;8.70;100.00;97628.50;5010392;28;20076;-76
2023/11/16 03:45:42;;;;;;;60.40;21.85;;;;;;;8.55;100.00;97640.00;5010692;28;20040;-76
2023/11/16 03:48:09;;;;;;;50.85;19.60;;;;;;;8.60;100.00;97630.81;5010578;28;20029;-75
2023/11/16 03:50:35;;;;;;;30.13;11.50;;;;;;;8.58;100.00;97632.66;5010713;28;20073;-76
2023/11/16 03:53:00;;;;;;;4.28;2.50;;;;;;;8.50;100.00;97623.34;5010477;28;20140;-76
2023/11/16 03:55:26;;;;;;;7.35;3.78;;;;;;;8.49;100.00;97614.50;4994018;28;20037;-76
2023/11/16 03:57:52;;;;;;;5.18;2.80;;;;;;;8.49;100.00;97637.66;5010279;28;20022;-75
2023/11/16 04:00:20;;;;;;;9.02;3.72;;;;;;;8.36;100.00;97633.88;4994092;28;20022;-75
2023/11/16 04:02:46;;;;;;;5.57;3.05;;;;;;;8.24;100.00;97642.47;5010332;28;20022;-76
2023/11/16 04:05:11;;;;;;;4.88;3.13;;;;;;;8.13;100.00;97654.53;5010018;28;20030;-77
2023/11/16 04:07:37;;;;;;;4.45;2.15;;;;;;;8.11;100.00;97656.44;5010018;28;20049;-74
2023/11/16 04:10:09;;;;;;;7.40;3.20;;;;;;;8.13;100.00;97667.00;4993087;28;20030;-76
2023/11/16 04:12:39;;;;;;;6.28;2.60;;;;;;;8.00;100.00;97656.09;5010909;28;20022;-75
2023/11/16 04:15:06;;;;;;;2.72;1.80;;;;;;;7.92;100.00;97652.09;5009592;28;20033;-75
2023/11/16 04:17:31;;;;;;;3.67;1.40;;;;;;;8.00;100.00;97641.91;5009667;28;20029;-77
2023/11/16 04:19:57;;;;;;;2.90;1.92;;;;;;;8.06;100.00;97650.44;5010924;28;20022;-75
2023/11/16 04:22:24;;;;;;;3.95;1.85;;;;;;;8.15;100.00;97649.16;5010848;28;20038;-75
2023/11/16 04:24:52;;;;;;;9.70;4.38;;;;;;;8.17;100.00;97665.91;4993047;28;20034;-76
2023/11/16 04:27:18;;;;;;;12.68;5.00;;;;;;;8.08;100.00;97680.56;5009202;28;20049;-76
2023/11/16 04:29:45;;;;;;;8.60;4.70;;;;;;;8.01;100.00;97689.78;5009406;28;20486;-75
2023/11/16 04:32:11;;;;;;;9.70;4.32;;;;;;;7.90;100.00;97692.13;5009873;28;20030;-74
2023/11/16 04:34:37;;;;;;;6.18;3.10;;;;;;;7.88;100.00;97678.00;4993251;28;20504;-77
2023/11/16 04:37:09;;;;;;;4.28;2.60;;;;;;;7.90;100.00;97686.78;5009317;28;20021;-78
2023/11/16 04:39:34;;;;;;;4.43;2.17;;;;;;;8.02;100.00;97690.66;5009595;28;20488;-78
2023/11/16 04:42:00;;;;;;;3.78;2.50;;;;;;;8.01;100.00;97678.25;5009443;28;20080;-78
2023/11/16 04:44:25;;;;;;;6.30;1.73;;;;;;;8.22;100.00;97676.31;5009615;28;20029;-79
2023/11/16 04:46:51;;;;;;;2.03;1.30;;;;;;;8.34;100.00;97681.91;5009691;28;20032;-76
2023/11/16 04:49:18;;;;;;;1.75;1.20;;;;;;;8.46;100.00;97670.63;5010220;28;20121;-76
2023/11/16 04:51:50;;;;;;;2.28;1.60;;;;;;;8.55;100.00;97674.66;5009389;28;20042;-78
2023/11/16 04:54:17;;;;;;;1.10;1.00;;;;;;;8.63;100.00;97667.97;5009492;28;20029;-79
2023/11/16 04:56:42;;;;;;;1.80;1.40;;;;;;;8.77;100.00;97669.88;4993501;28;20026;-77
2023/11/16 04:59:10;;;;;;;1.65;1.10;;;;;;;8.79;100.00;97684.03;5009400;28;20080;-78
2023/11/16 05:01:36;;;;;;;2.17;1.30;;;;;;;8.80;100.00;97690.22;5010450;28;20096;-79
2023/11/16 05:04:02;;;;;;;1.63;1.50;;;;;;;8.78;100.00;97682.28;5009606;28;20034;-78
2023/11/16 05:06:28;;;;;;;7.85;3.85;;;;;;;8.96;100.00;97696.44;5009154;28;20052;-79
2023/11/16 05:08:53;;;;;;;6.35;3.15;;;;;;;8.89;100.00;97706.59;5009537;28;20456;-77
2023/11/16 05:11:23;;;;;;;4.75;3.03;;;;;;;8.87;100.00;97711.16;5010298;28;20029;-76
2023/11/16 05:13:50;;;;;;;3.78;2.08;;;;;;;8.76;100.00;97707.31;4995873;28;20029;-77
2023/11/16 05:16:16;;;;;;;5.18;2.50;;;;;;;8.57;100.00;97702.94;4992779;28;20025;-77
2023/11/16 05:18:43;;;;;;;3.38;2.30;;;;;;;8.44;100.00;97712.50;5007782;28;20034;-77
2023/11/16 05:21:08;;;;;;;4.70;3.30;;;;;;;8.33;100.00;97727.31;4991526;28;20095;-78
2023/11/16 05:23:35;;;;;;;16.13;7.68;;;;;;;8.19;100.00;97730.63;5006503;28;20021;-78
2023/11/16 05:26:00;;;;;;;23.75;10.45;;;;;;;8.04;100.00;97721.59;4988174;28;20052;-77
2023/11/16 05:28:26;;;;;;;14.00;6.85;;;;;;;7.90;100.00;97729.41;5010215;28;20026;-77
2023/11/16 05:30:51;;;;;;;13.00;5.20;;;;;;;7.86;100.00;97734.94;5009023;28;20033;-77
2023/11/16 05:33:19;;;;;;;12.63;6.00;;;;;;;7.79;100.00;97733.50;5009157;28;20112;-77
2023/11/16 05:35:47;;;;;;;14.50;6.53;;;;;;;7.75;100.00;97734.59;5008648;28;20033;-77
2023/11/16 05:38:14;;;;;;;9.05;4.32;;;;;;;7.88;100.00;97735.72;4993280;28;20597;-76
2023/11/16 05:40:39;;;;;;;5.55;2.55;;;;;;;8.13;100.00;97737.13;5009008;28;20107;-78
2023/11/16 05:43:05;;;;;;;9.70;5.03;;;;;;;8.18;100.00;97729.75;5009491;28;20022;-77
2023/11/16 05:45:31;;;;;;;8.75;4.40;;;;;;;8.09;100.00;97732.88;5012244;28;20033;-77
2023/11/16 05:47:57;;;;;;;9.20;4.95;;;;;;;8.27;100.00;97743.56;5012716;28;20022;-78
2023/11/16 05:50:25;;;;;;;6.13;3.30;;;;;;;8.25;100.00;97753.44;5012655;28;20423;-77
2023/11/16 05:52:53;;;;;;;4.95;3.28;;;;;;;8.15;100.00;97759.22;5012566;28;20378;-77
2023/11/16 05:55:20;;;;;;;6.28;3.35;;;;;;;8.15;100.00;97769.03;5013788;28;20113;-77
2023/11/16 05:57:47;;;;;;;8.07;5.03;;;;;;;8.03;100.00;97782.91;4995749;28;20112;-77
2023/11/16 06:00:14;;;;;;;7.20;3.20;;;;;;;8.00;100.00;97783.94;5012651;28;20120;-77
2023/11/16 06:02:39;;;;;;;5.00;3.30;;;;;;;7.97;100.00;97778.75;4995657;28;20073;-77
2023/11/16 06:05:06;;;;;;;5.15;3.13;;;;;;;8.01;100.00;97776.81;5011981;28;20069;-78
2023/11/16 06:07:31;;;;;;;4.38;2.88;;;;;;;8.16;100.00;97782.25;4995439;28;20501;-78
2023/11/16 06:09:57;;;;;;;4.85;2.72;;;;;;;8.34;100.00;97782.31;5012015;28;20026;-78
2023/11/16 06:12:23;;;;;;;8.90;4.47;;;;;;;9.56;100.00;97775.91;4995693;28;20494;-78
2023/11/16 06:14:56;;;;;;;7.75;4.90;;;;;;;11.49;100.00;97767.31;5011769;28;20045;-77
2023/11/16 06:17:22;;;;;;;5.28;2.97;;;;;;;13.25;100.00;97760.13;5011606;28;20052;-77
2023/11/16 06:19:48;;;;;;;13.20;5.40;;;;;;;14.83;100.00;97748.56;4995046;28;20077;-77
2023/11/16 06:22:14;;;;;;;14.13;7.63;;;;;;;15.05;97.47;97736.03;5011999;28;20123;-78
2023/11/16 06:24:40;;;;;;;9.63;5.10;;;;;;;14.89;99.91;97748.97;4995465;28;20037;-78
2023/11/16 06:27:05;;;;;;;7.25;2.60;;;;;;;15.24;88.15;97743.56;4995119;28;20045;-78
2023/11/16 06:29:31;;;;;;;5.30;3.13;;;;;;;16.29;77.74;97733.34;5011814;28;20030;-77
2023/11/16 06:31:57;;;;;;;9.73;4.50;;;;;;;17.31;71.39;97737.28;5011505;28;20088;-77
2023/11/16 06:34:23;;;;;;;5.68;3.03;;;;;;;18.02;62.37;97715.75;5012929;28;20029;-79
2023/11/16 06:36:49;;;;;;;7.68;4.05;;;;;;;18.28;61.33;97735.91;4995206;28;20034;-79
2023/11/16 06:39:15;;;;;;;3.20;2.38;;;;;;;18.88;59.59;97734.91;5011577;28;20553;-79
2023/11/16 06:41:41;;;;;;;5.78;3.50;;;;;;;19.67;55.00;97725.59;5011050;28;20033;-77
2023/11/16 06:44:07;;;;;;;4.13;3.08;;;;;;;19.98;51.84;97724.34;4995270;28;20025;-75
2023/11/16 06:46:34;;;;;;;5.50;3.13;;;;;;;19.89;51.69;97719.81;5012480;28;20046;-79
2023/11/16 06:49:02;;;;;;;7.05;2.97;;;;;;;20.22;50.43;97717.50;4994973;28;20128;-78
2023/11/16 06:51:28;;;;;;;4.95;3.13;;;;;;;20.75;48.74;97718.50;5011522;28;20571;-78
2023/11/16 06:53:53;;;;;;;5.43;2.90;;;;;;;20.85;49.96;97724.75;4994204;28;20409;-80
2023/11/16 06:56:19;;;;;;;10.88;4.28;;;;;;;21.38;49.34;97730.16;5014330;28;20030;-80
2023/11/16 06:58:45;;;;;;;5.95;2.70;;;;;;;21.85;45.82;97717.06;5012392;28;20034;-77
2023/11/16 07:01:11;;;;;;;16.98;6.38;;;;;;;22.08;46.46;97726.44;5010935;28;20026;-77
2023/11/16 07:03:36;;;;;;;14.52;5.03;;;;;;;22.15;45.41;97730.22;5010950;28;20032;-78
2023/11/16 07:06:02;;;;;;;32.10;12.98;;;;;;;22.04;49.07;97749.56;5011865;28;20061;-77
2023/11/16 07:08:27;;;;;;;15.85;8.02;;;;;;;22.14;48.83;97739.41;5010937;28;20033;-77
2023/11/16 07:10:53;;;;;;;53.67;19.35;;;;;;;21.79;49.11;97754.97;5010699;28;20451;-77
2023/11/16 07:13:22;;;;;;;39.45;17.42;;;;;;;21.81;48.96;97753.81;5011923;28;20026;-77
2023/11/16 07:15:48;;;;;;;36.10;14.00;;;;;;;22.40;48.67;97743.94;5010252;28;20555;-76
2023/11/16 07:18:16;;;;;;;13.27;7.00;;;;;;;21.98;47.27;97747.50;4994351;28;20178;-77
2023/11/16 07:20:45;;;;;;;20.27;7.43;;;;;;;22.33;46.88;97748.38;4994437;28;20064;-77
2023/11/16 07:23:11;;;;;;;8.73;5.03;;;;;;;22.07;45.13;97732.03;5010317;28;20033;-77
2023/11/16 07:25:37;;;;;;;4.90;3.08;;;;;;;21.51;45.86;97751.53;5010419;28;20052;-77
2023/11/16 07:28:04;;;;;;;5.57;2.72;;;;;;;22.46;43.75;97743.28;5010134;28;20034;-77
2023/11/16 07:30:32;;;;;;;18.20;10.82;;;;;;;22.72;44.14;97733.22;4994208;28;20539;-77
2023/11/16 07:32:58;;;;;;;9.13;3.88;;;;;;;22.63;43.90;97739.63;4993887;28;20022;-77
2023/11/16 07:35:25;;;;;;;7.35;3.22;;;;;;;22.66;42.95;97734.72;5009846;28;20026;-77
2023/11/16 07:37:51;;;;;;;5.78;3.50;;;;;;;23.39;42.75;97734.88;5011414;28;20108;-76
2023/11/16 07:40:17;;;;;;;6.60;2.50;;;;;;;23.18;41.04;97735.34;5010031;28;20405;-76
2023/11/16 07:42:44;;;;;;;4.15;2.60;;;;;;;23.65;41.63;97732.84;4993859;28;20632;-76
2023/11/16 07:45:13;;;;;;;4.63;2.50;;;;;;;22.87;42.07;97741.59;5010646;28;20409;-77
2023/11/16 07:47:41;;;;;;;1.80;1.63;;;;;;;22.17;41.89;97740.09;4994075;28;20034;-77
2023/11/16 07:50:10;;;;;;;2.30;1.58;;;;;;;22.30;42.25;97757.72;5009936;28;20048;-76
2023/11/16 07:52:44;;;;;;;4.82;2.47;;;;;;;22.58;41.95;97763.78;5010275;28;20057;-77
2023/11/16 07:55:19;;;;;;;4.18;2.00;;;;;;;22.74;42.02;97761.16;5009912;28;20033;-77
2023/11/16 07:57:49;;;;;;;2.22;1.40;;;;;;;22.71;40.59;97755.19;5009945;28;20516;-77
2023/11/16 08:00:31;;;;;;;2.38;1.40;;;;;;;23.03;40.18;97763.47;4993913;28;20375;-76
2023/11/16 08:05:46;;;;;;;2.17;1.50;;;;;;;22.83;40.83;97762.91;5009737;28;20045;-76
2023/11/16 08:08:14;;;;;;;7.68;2.78;;;;;;;22.05;42.79;97788.59;5009603;28;20061;-77
2023/11/16 08:10:43;;;;;;;2.30;1.70;;;;;;;22.37;42.02;97782.44;5009810;28;20125;-77
2023/11/16 08:13:11;;;;;;;2.55;1.98;;;;;;;22.39;42.08;97780.44;4993050;28;20116;-75
2023/11/16 08:15:40;;;;;;;5.05;2.03;;;;;;;22.48;42.15;97779.44;5009733;28;20025;-77
2023/11/16 08:18:10;;;;;;;4.03;2.33;;;;;;;21.90;44.32;97788.28;5009845;28;20032;-76
2023/11/16 08:20:36;;;;;;;2.33;1.63;;;;;;;21.71;43.58;97777.59;5009447;28;20034;-76
2023/11/16 08:23:02;;;;;;;4.45;1.67;;;;;;;21.95;43.56;97777.78;5009753;28;20017;-76
2023/11/16 08:25:30;;;;;;;1.70;1.50;;;;;;;22.08;42.66;97772.78;5009413;28;20076;-76
2023/11/16 08:27:56;;;;;;;3.65;1.67;;;;;;;21.53;43.77;97782.19;4977109;28;20033;-75
2023/11/16 08:30:22;;;;;;;2.25;1.70;;;;;;;21.85;43.26;97779.72;4992932;28;20022;-76
2023/11/16 08:32:48;;;;;;;3.42;2.00;;;;;;;22.10;43.44;97787.06;4993262;28;20409;-76
2023/11/16 08:35:14;;;;;;;2.33;1.55;;;;;;;23.15;41.44;97771.16;4993084;28;20168;-76
2023/11/16 08:37:44;;;;;;;6.90;1.90;;;;;;;23.96;40.61;97779.41;4977054;28;20029;-76
2023/11/16 08:40:12;;;;;;;2.83;1.55;;;;;;;23.15;41.52;97773.91;4977008;28;20108;-76
2023/11/16 08:42:43;;;;;;;14.93;9.25;;;;;;;22.26;42.46;97778.16;4976463;28;20046;-76
2023/11/16 08:45:32;;;;;;;2.33;1.70;;;;;;;21.71;43.82;97793.94;5010628;28;20041;-76
2023/11/16 08:47:59;;;;;;;1.80;1.25;;;;;;;22.72;41.81;97786.91;4991627;28;20409;-75
2023/11/16 08:50:24;;;;;;;5.35;1.65;;;;;;;23.75;40.80;97784.53;4976864;28;20041;-75
2023/11/16 08:52:51;;;;;;;1.15;0.90;;;;;;;24.16;37.37;97768.97;4976440;28;20026;-75
2023/11/16 08:55:25;;;;;;;10.40;2.25;;;;;;;24.57;38.09;97780.66;4992989;28;20084;-75
2023/11/16 08:57:50;;;;;;;3.90;1.13;;;;;;;23.88;39.42;97781.28;4977546;28;20053;-76
2023/11/16 09:00:37;;;;;;;2.35;1.50;;;;;;;24.18;39.62;97786.06;4976607;28;20570;-75
2023/11/16 09:03:09;;;;;;;1.75;1.42;;;;;;;24.63;37.77;97777.22;4995742;28;20026;-77
2023/11/16 09:05:39;;;;;;;2.35;1.27;;;;;;;23.26;39.73;97789.09;4976873;28;20087;-77
2023/11/16 09:08:09;;;;;;;0.82;0.80;;;;;;;23.13;39.40;97773.19;4977271;28;20080;-76
2023/11/16 09:10:35;;;;;;;1.90;1.10;;;;;;;23.37;37.88;97766.06;4974903;28;20038;-75
2023/11/16 09:13:03;;;;;;;4.25;2.13;;;;;;;22.87;39.75;97760.69;4992856;28;20022;-76
2023/11/16 09:15:33;;;;;;;9.88;2.33;;;;;;;22.25;41.26;97768.25;4976388;28;20026;-76
2023/11/16 09:18:02;;;;;;;5.65;1.15;;;;;;;22.96;40.48;97763.28;4978647;28;20038;-77
2023/11/16 09:20:29;;;;;;;5.38;1.60;;;;;;;23.10;41.84;97761.78;4996965;28;20103;-76
2023/11/16 09:22:57;;;;;;;1.63;1.10;;;;;;;22.97;40.47;97754.09;4996636;28;20060;-77
2023/11/16 09:25:24;;;;;;;4.38;2.13;;;;;;;22.14;40.00;97750.31;4980058;28;20401;-76
2023/11/16 09:27:51;;;;;;;6.95;1.63;;;;;;;22.37;40.44;97755.19;4996215;28;20496;-76
2023/11/16 09:30:18;;;;;;;8.10;1.27;;;;;;;23.52;39.40;97753.47;4996472;28;20040;-79
2023/11/16 09:32:44;;;;;;;2.50;1.00;;;;;;;24.67;35.29;97723.84;4996145;28;20477;-79
2023/11/16 09:35:14;;;;;;;2.17;1.25;;;;;;;25.10;35.92;97727.91;4996357;28;20030;-77
2023/11/16 09:37:44;;;;;;;2.40;1.35;;;;;;;25.00;38.17;97750.03;4980034;28;20575;-76
2023/11/16 09:40:19;;;;;;;1.13;0.95;;;;;;;25.63;34.93;97721.50;4996766;28;20059;-76
2023/11/16 09:42:47;;;;;;;2.95;0.70;;;;;;;24.46;34.79;97709.91;4994829;28;20069;-76
2023/11/16 09:45:21;;;;;;;2.72;0.75;;;;;;;22.52;37.17;97709.91;4996719;28;20057;-76
2023/11/16 09:47:57;;;;;;;2.15;1.13;;;;;;;22.53;38.29;97725.25;4996561;28;20116;-76
2023/11/16 09:50:26;;;;;;;5.63;1.30;;;;;;;21.00;41.24;97741.38;4995988;28;20029;-76
2023/11/16 09:52:55;;;;;;;1.50;1.13;;;;;;;21.90;40.95;97731.09;4996324;28;20029;-77
2023/11/16 09:55:22;;;;;;;1.58;1.10;;;;;;;21.96;39.48;97732.34;4979571;28;20127;-76
2023/11/16 09:57:50;;;;;;;5.20;1.27;;;;;;;22.70;38.21;97718.91;4979436;28;20111;-77
2023/11/16 10:00:18;;;;;;;3.85;1.50;;;;;;;22.32;38.19;97724.84;4979779;28;20104;-77
2023/11/16 10:02:46;;;;;;;2.65;1.45;;;;;;;23.02;36.48;97697.09;4995512;28;20135;-78
2023/11/16 10:05:42;;;;;;;2.25;1.20;;;;;;;22.72;38.15;97705.06;4995745;28;20030;-77
2023/11/16 10:08:14;;;;;;;5.28;1.50;;;;;;;24.25;37.30;97703.16;4975089;28;20513;-77
2023/11/16 10:10:54;;;;;;;1.92;0.95;;;;;;;23.58;35.87;97698.16;4996433;28;20038;-76
2023/11/16 10:13:24;;;;;;;1.17;0.88;;;;;;;24.49;35.91;97691.25;4995363;28;20103;-78
2023/11/16 10:15:52;;;;;;;1.00;0.90;;;;;;;22.68;38.00;97697.22;4995368;28;20110;-77
2023/11/16 10:18:18;;;;;;;1.48;0.90;;;;;;;20.86;39.97;97704.66;4996027;28;20496;-77
2023/11/16 10:20:44;;;;;;;1.35;0.70;;;;;;;21.53;39.89;97700.53;4995176;28;20061;-78
2023/11/16 10:23:13;;;;;;;6.50;0.95;;;;;;;22.09;39.17;97687.25;4995541;28;20049;-77
2023/11/16 10:25:39;;;;;;;2.00;1.00;;;;;;;23.19;37.74;97678.88;4996275;28;20132;-77
2023/11/16 10:28:19;;;;;;;0.85;0.80;;;;;;;24.70;34.73;97679.72;4994747;28;20041;-77
2023/11/16 10:30:47;;;;;;;1.73;0.70;;;;;;;23.18;35.18;97671.72;5010605;28;20405;-76
2023/11/16 10:33:17;;;;;;;1.17;1.00;;;;;;;22.40;37.60;97681.25;5011495;28;20030;-76
2023/11/16 10:35:47;;;;;;;2.40;1.00;;;;;;;22.72;35.83;97678.66;5011481;28;20030;-77
2023/11/16 10:38:18;;;;;;;1.58;0.75;;;;;;;23.32;36.15;97675.66;5011320;28;20486;-76
2023/11/16 10:40:46;;;;;;;0.98;0.88;;;;;;;23.88;34.86;97664.63;5011459;28;20030;-77
2023/11/16 10:43:17;;;;;;;2.22;1.30;;;;;;;21.77;37.14;97670.72;4995267;28;20030;-76
2023/11/16 10:45:43;;;;;;;1.33;0.73;;;;;;;20.48;39.85;97675.06;5012513;28;20045;-77
2023/11/16 10:48:13;;;;;;;1.20;0.80;;;;;;;19.88;40.49;97671.06;5011037;28;20052;-78
2023/11/16 10:50:42;;;;;;;2.17;0.90;;;;;;;19.01;42.50;97675.81;5012172;28;20501;-78
2023/11/16 10:53:24;;;;;;;1.10;0.82;;;;;;;20.27;41.35;97683.47;5010842;28;20117;-77
2023/11/16 10:55:51;;;;;;;1.00;0.90;;;;;;;21.79;39.05;97667.81;5011022;28;20033;-76
2023/11/16 10:58:22;;;;;;;1.05;0.95;;;;;;;22.84;36.74;97654.63;4994902;28;20057;-77
2023/11/16 11:00:52;;;;;;;1.38;1.00;;;;;;;22.93;36.28;97650.88;5011127;28;20030;-77
2023/11/16 11:03:19;;;;;;;1.08;0.90;;;;;;;23.19;36.11;97649.69;4994752;28;20492;-76
2023/11/16 11:05:48;;;;;;;1.02;0.82;;;;;;;23.49;35.80;97648.16;4994862;28;20073;-76
2023/11/16 11:08:17;;;;;;;1.30;1.00;;;;;;;24.70;34.63;97646.88;4994806;28;20051;-76
2023/11/16 11:10:47;;;;;;;1.17;0.98;;;;;;;24.71;33.80;97643.09;5012323;28;20022;-75
2023/11/16 11:13:14;;;;;;;0.65;0.63;;;;;;;24.34;33.19;97630.13;5010709;28;20049;-74
2023/11/16 11:15:40;;;;;;;1.38;0.85;;;;;;;24.38;33.72;97638.84;4994382;28;20448;-75
2023/11/16 11:18:06;;;;;;;2.05;1.20;;;;;;;24.17;34.46;97648.53;4994236;28;20096;-76
2023/11/16 11:20:40;;;;;;;9.20;6.18;;;;;;;24.14;35.03;97648.03;4994206;28;20137;-76
2023/11/16 11:23:13;;;;;;;0.95;0.90;;;;;;;24.35;34.18;97642.78;5010386;28;20405;-75
2023/11/16 11:25:41;;;;;;;4.13;1.30;;;;;;;25.02;34.17;97637.59;5010353;28;20480;-75
2023/11/16 11:28:11;;;;;;;1.00;0.90;;;;;;;25.52;33.01;97642.50;4994030;28;20116;-76
2023/11/16 11:30:54;;;;;;;1.52;1.10;;;;;;;25.64;32.19;97635.53;5010499;28;20049;-77
2023/11/16 11:33:28;;;;;;;2.35;1.00;;;;;;;26.20;32.39;97626.69;5011636;28;20021;-74
2023/11/16 11:35:53;;;;;;;1.50;1.02;;;;;;;25.69;32.94;97622.94;5010392;28;20034;-76
2023/11/16 11:38:26;;;;;;;3.10;1.00;;;;;;;25.62;32.62;97632.13;5011255;28;20100;-74